createdAt,value
2022-10-26T00:01:29.306Z,12.10
2022-10-26T00:03:58.455Z,12.10
2022-10-26T00:06:28.835Z,12.00
2022-10-26T00:08:58.312Z,12.10
2022-10-26T00:11:26.910Z,12.10
2022-10-26T00:13:55.480Z,12.10
2022-10-26T00:16:27.982Z,12.10
2022-10-26T00:18:56.821Z,12.10
2022-10-26T00:21:25.628Z,12.10
2022-10-26T00:23:54.182Z,12.10
2022-10-26T00:26:22.677Z,12.10
2022-10-26T00:28:53.673Z,12.10
2022-10-26T00:31:23.020Z,12.10
2022-10-26T00:33:55.598Z,12.10
2022-10-26T00:36:25.752Z,12.10
2022-10-26T00:38:56.313Z,12.10
2022-10-26T00:41:26.894Z,12.10
2022-10-26T00:43:56.250Z,12.20
2022-10-26T00:46:27.834Z,12.10
2022-10-26T00:49:02.123Z,12.10
2022-10-26T00:51:33.538Z,12.10
2022-10-26T00:54:05.162Z,12.10
2022-10-26T00:56:35.524Z,12.10
2022-10-26T00:59:07.488Z,12.20
2022-10-26T01:01:39.073Z,12.20
2022-10-26T01:04:09.137Z,12.20
2022-10-26T01:06:39.287Z,12.20
2022-10-26T01:09:07.965Z,12.20
2022-10-26T01:11:36.713Z,12.20
2022-10-26T01:14:08.205Z,12.20
2022-10-26T01:16:52.938Z,12.20
2022-10-26T01:19:53.595Z,12.20
2022-10-26T01:22:24.881Z,12.20
2022-10-26T01:25:16.893Z,12.20
2022-10-26T01:27:48.240Z,12.20
2022-10-26T01:30:28.822Z,12.20
2022-10-26T01:33:24.017Z,12.20
2022-10-26T01:36:02.152Z,12.20
2022-10-26T01:38:35.857Z,12.20
2022-10-26T01:41:09.535Z,12.20
2022-10-26T01:43:43.508Z,12.20
2022-10-26T01:46:14.320Z,12.20
2022-10-26T01:48:45.162Z,12.20
2022-10-26T01:51:15.085Z,12.20
2022-10-26T01:53:46.872Z,12.20
2022-10-26T01:56:21.921Z,12.20
2022-10-26T01:59:09.192Z,12.30
2022-10-26T02:02:02.601Z,12.20
2022-10-26T02:04:42.166Z,12.30
2022-10-26T02:07:19.385Z,12.30
2022-10-26T02:09:57.849Z,12.30
2022-10-26T02:12:34.918Z,12.40
2022-10-26T02:15:10.537Z,12.30
2022-10-26T02:17:47.290Z,12.40
2022-10-26T02:20:23.084Z,12.40
2022-10-26T02:22:53.768Z,12.50
2022-10-26T02:25:25.106Z,12.50
2022-10-26T02:27:58.720Z,12.50
2022-10-26T02:30:27.889Z,12.50
2022-10-26T02:33:00.095Z,12.60
2022-10-26T02:35:31.886Z,12.70
2022-10-26T02:38:05.590Z,12.70
2022-10-26T02:40:35.049Z,12.80
2022-10-26T02:43:08.672Z,12.80
2022-10-26T02:45:43.505Z,12.90
2022-10-26T02:48:13.689Z,13.00
2022-10-26T02:50:50.043Z,13.10
2022-10-26T02:53:25.778Z,13.10
2022-10-26T02:55:55.989Z,13.20
2022-10-26T02:58:27.516Z,13.20
2022-10-26T03:00:56.582Z,13.30
2022-10-26T03:03:26.821Z,13.30
2022-10-26T03:05:55.353Z,13.40
2022-10-26T03:08:25.054Z,13.40
2022-10-26T03:10:53.548Z,13.50
2022-10-26T03:13:22.012Z,13.50
2022-10-26T03:15:50.529Z,13.50
2022-10-26T03:18:19.073Z,13.40
2022-10-26T03:20:48.902Z,13.50
2022-10-26T03:23:17.622Z,13.50
2022-10-26T03:25:46.077Z,13.50
2022-10-26T03:28:14.598Z,13.50
2022-10-26T03:30:43.173Z,13.50
2022-10-26T03:33:11.773Z,13.60
2022-10-26T03:35:40.285Z,13.50
2022-10-26T03:38:12.909Z,13.50
2022-10-26T03:40:43.813Z,13.50
2022-10-26T03:43:12.299Z,13.50
2022-10-26T03:45:40.882Z,13.60
2022-10-26T03:48:09.525Z,13.50
2022-10-26T03:50:38.185Z,13.60
2022-10-26T03:53:07.198Z,13.60
2022-10-26T03:55:37.081Z,13.60
2022-10-26T03:58:05.769Z,13.60
2022-10-26T04:00:34.334Z,13.60
2022-10-26T04:03:02.881Z,13.70
2022-10-26T04:05:31.530Z,13.70
2022-10-26T04:08:03.014Z,13.70
2022-10-26T04:10:32.546Z,13.70
2022-10-26T04:13:02.471Z,13.60
2022-10-26T04:15:31.154Z,13.70
2022-10-26T04:18:01.275Z,13.60
2022-10-26T04:20:31.556Z,13.60
2022-10-26T04:23:01.271Z,13.60
2022-10-26T04:25:33.050Z,13.60
2022-10-26T04:28:05.054Z,13.60
2022-10-26T04:30:34.757Z,13.70
2022-10-26T04:33:03.478Z,13.60
2022-10-26T04:35:32.426Z,13.60
2022-10-26T04:38:01.768Z,13.60
2022-10-26T04:40:31.132Z,13.60
2022-10-26T04:42:59.857Z,13.60
2022-10-26T04:45:30.828Z,13.50
2022-10-26T04:48:04.924Z,13.60
2022-10-26T04:50:34.495Z,13.60
2022-10-26T04:53:05.538Z,13.60
2022-10-26T04:55:34.072Z,13.60
2022-10-26T04:58:02.913Z,13.60
2022-10-26T05:00:33.294Z,13.60
2022-10-26T05:03:02.001Z,13.60
2022-10-26T05:05:32.661Z,13.60
2022-10-26T05:08:01.331Z,13.60
2022-10-26T05:10:29.890Z,13.60
2022-10-26T05:13:00.150Z,13.50
2022-10-26T05:15:29.571Z,13.60
2022-10-26T05:18:00.513Z,13.50
2022-10-26T05:20:31.035Z,13.60
2022-10-26T05:23:00.998Z,13.60
2022-10-26T05:25:32.552Z,13.60
2022-10-26T05:28:02.179Z,13.60
2022-10-26T05:30:32.098Z,13.60
2022-10-26T05:33:03.143Z,13.60
2022-10-26T05:35:32.433Z,13.60
2022-10-26T05:38:01.993Z,13.70
2022-10-26T05:40:30.548Z,13.70
2022-10-26T05:43:01.904Z,13.70
2022-10-26T05:45:30.944Z,13.70
2022-10-26T05:48:02.793Z,13.70
2022-10-26T05:50:31.541Z,13.70
2022-10-26T05:53:00.045Z,13.70
2022-10-26T05:55:29.292Z,13.80
2022-10-26T05:57:58.345Z,13.80
2022-10-26T06:00:28.763Z,13.80
2022-10-26T06:03:13.751Z,13.80
2022-10-26T06:05:52.295Z,13.80
2022-10-26T06:08:21.471Z,13.90
2022-10-26T06:10:50.767Z,13.90
2022-10-26T06:13:19.948Z,13.90
2022-10-26T06:16:00.768Z,13.90
2022-10-26T06:18:40.365Z,13.90
2022-10-26T06:21:24.987Z,13.90
2022-10-26T06:24:00.229Z,13.90
2022-10-26T06:26:36.397Z,13.90
2022-10-26T06:29:18.670Z,13.90
2022-10-26T06:31:48.119Z,13.90
2022-10-26T06:34:23.796Z,13.90
2022-10-26T06:39:23.724Z,13.90
2022-10-26T06:41:52.998Z,13.90
2022-10-26T06:44:25.930Z,13.90
2022-10-26T06:47:02.917Z,14.00
2022-10-26T06:49:37.426Z,13.90
2022-10-26T06:52:14.264Z,13.90
2022-10-26T06:54:49.511Z,13.90
2022-10-26T06:57:19.668Z,13.90
2022-10-26T06:59:51.742Z,13.90
2022-10-26T07:02:20.971Z,13.90
2022-10-26T07:04:51.021Z,13.90
2022-10-26T07:07:21.527Z,13.90
2022-10-26T07:09:50.759Z,13.90
2022-10-26T07:12:19.377Z,13.90
2022-10-26T07:14:48.031Z,13.90
2022-10-26T07:17:16.996Z,13.90
2022-10-26T07:19:45.758Z,13.90
2022-10-26T07:22:15.639Z,13.90
2022-10-26T07:24:44.164Z,14.00
2022-10-26T07:27:12.876Z,13.90
2022-10-26T07:29:41.433Z,13.90
2022-10-26T07:32:09.982Z,13.90
2022-10-26T07:34:40.014Z,14.00
2022-10-26T07:37:08.506Z,14.00
2022-10-26T07:39:38.446Z,14.10
2022-10-26T07:42:07.106Z,14.10
2022-10-26T07:44:35.584Z,14.10
2022-10-26T07:47:04.112Z,14.10
2022-10-26T07:49:32.562Z,14.20
2022-10-26T07:52:01.133Z,14.20
2022-10-26T07:54:29.642Z,14.20
2022-10-26T07:56:59.861Z,14.30
2022-10-26T07:59:28.447Z,14.30
2022-10-26T08:01:56.959Z,14.20
2022-10-26T08:04:25.849Z,14.30
2022-10-26T08:06:54.282Z,14.20
2022-10-26T08:09:22.920Z,14.20
2022-10-26T08:11:51.411Z,14.20
2022-10-26T08:14:21.256Z,14.20
2022-10-26T08:16:52.294Z,14.20
2022-10-26T08:19:20.966Z,14.20
2022-10-26T08:21:49.441Z,14.20
2022-10-26T08:24:18.001Z,14.20
2022-10-26T08:26:46.895Z,14.20
2022-10-26T08:29:15.633Z,14.30
2022-10-26T08:31:45.767Z,14.30
2022-10-26T08:34:14.333Z,14.30
2022-10-26T08:36:42.828Z,14.30
2022-10-26T08:39:11.433Z,14.40
2022-10-26T08:41:43.712Z,14.40
2022-10-26T08:44:23.608Z,14.50
2022-10-26T08:46:56.809Z,14.60
2022-10-26T08:49:28.025Z,14.70
2022-10-26T08:52:00.089Z,14.80
2022-10-26T08:54:36.726Z,14.80
2022-10-26T08:57:15.999Z,14.90
2022-10-26T08:59:50.209Z,15.00
2022-10-26T09:02:20.466Z,15.10
2022-10-26T09:04:49.242Z,15.10
2022-10-26T09:07:33.413Z,15.20
2022-10-26T09:10:14.758Z,15.20
2022-10-26T09:12:50.311Z,15.30
2022-10-26T09:15:28.906Z,15.30
2022-10-26T09:18:10.802Z,15.40
2022-10-26T09:20:56.079Z,15.40
2022-10-26T09:23:35.934Z,15.40
2022-10-26T09:26:05.782Z,15.50
2022-10-26T09:28:38.175Z,15.60
2022-10-26T09:31:07.138Z,15.70
2022-10-26T09:33:40.825Z,15.90
2022-10-26T09:36:15.932Z,15.90
2022-10-26T09:38:50.198Z,16.00
2022-10-26T09:41:27.086Z,16.10
2022-10-26T09:44:06.568Z,16.20
2022-10-26T09:46:42.963Z,16.30
2022-10-26T09:49:15.958Z,16.30
2022-10-26T09:51:46.298Z,16.30
2022-10-26T09:54:17.198Z,16.40
2022-10-26T09:56:48.607Z,16.30
2022-10-26T09:59:19.018Z,16.40
2022-10-26T10:01:47.602Z,16.50
2022-10-26T10:04:22.591Z,16.60
2022-10-26T10:06:52.849Z,16.70
2022-10-26T10:09:22.905Z,16.80
2022-10-26T10:11:56.507Z,16.90
2022-10-26T10:14:27.026Z,17.10
2022-10-26T10:16:57.760Z,17.10
2022-10-26T10:19:28.944Z,17.30
2022-10-26T10:22:00.016Z,17.40
2022-10-26T10:24:31.323Z,17.50
2022-10-26T10:27:05.410Z,17.50
2022-10-26T10:29:35.417Z,17.70
2022-10-26T10:32:05.024Z,17.80
2022-10-26T10:34:36.133Z,17.90
2022-10-26T10:37:05.789Z,18.00
2022-10-26T10:39:40.498Z,18.10
2022-10-26T10:42:17.469Z,18.20
2022-10-26T10:44:47.365Z,18.40
2022-10-26T10:47:23.550Z,18.40
2022-10-26T10:49:56.875Z,18.60
2022-10-26T10:52:30.949Z,18.70
2022-10-26T10:55:25.316Z,18.90
2022-10-26T10:58:14.468Z,19.00
2022-10-26T11:00:49.007Z,19.10
2022-10-26T11:03:34.360Z,19.10
2022-10-26T11:06:14.019Z,19.10
2022-10-26T11:08:47.426Z,19.10
2022-10-26T11:11:21.950Z,19.10
2022-10-26T11:13:56.737Z,19.20
2022-10-26T11:16:30.859Z,19.40
2022-10-26T11:19:02.986Z,19.50
2022-10-26T11:21:36.873Z,19.60
2022-10-26T11:24:14.499Z,19.70
2022-10-26T11:26:49.898Z,19.80
2022-10-26T11:29:25.027Z,19.90
2022-10-26T11:31:58.361Z,20.00
2022-10-26T11:34:34.389Z,19.90
2022-10-26T11:37:11.593Z,19.90
2022-10-26T11:39:46.140Z,19.90
2022-10-26T11:42:25.813Z,19.90
2022-10-26T11:45:00.229Z,19.90
2022-10-26T11:47:35.445Z,19.90
2022-10-26T11:50:14.659Z,19.90
2022-10-26T11:52:53.541Z,19.90
2022-10-26T11:55:23.453Z,20.00
2022-10-26T11:57:53.728Z,19.90
2022-10-26T12:00:23.776Z,19.90
2022-10-26T12:02:57.768Z,20.00
2022-10-26T12:05:34.446Z,20.10
2022-10-26T12:08:09.038Z,20.10
2022-10-26T12:10:41.780Z,20.10
2022-10-26T12:13:19.592Z,20.20
2022-10-26T12:16:03.113Z,20.20
2022-10-26T12:18:55.176Z,20.10
2022-10-26T12:21:28.460Z,20.20
2022-10-26T12:24:00.358Z,20.10
2022-10-26T12:26:52.197Z,20.10
2022-10-26T12:29:37.119Z,20.00
2022-10-26T12:32:25.767Z,20.10
2022-10-26T12:35:03.493Z,20.10
2022-10-26T12:37:36.931Z,20.10
2022-10-26T12:40:43.197Z,20.20
2022-10-26T12:43:38.135Z,20.20
2022-10-26T12:46:43.509Z,20.30
2022-10-26T12:49:59.782Z,20.30
2022-10-26T12:52:44.782Z,20.40
2022-10-26T12:55:53.154Z,20.40
2022-10-26T12:58:35.925Z,20.50
2022-10-26T13:01:38.223Z,20.60
2022-10-26T13:04:21.379Z,20.60
2022-10-26T13:07:16.506Z,20.60
2022-10-26T13:09:47.401Z,20.70
2022-10-26T13:12:16.192Z,20.80
2022-10-26T13:14:59.897Z,20.90
2022-10-26T13:17:31.934Z,21.00
2022-10-26T13:20:02.254Z,21.00
2022-10-26T13:22:31.876Z,20.90
2022-10-26T13:25:02.490Z,21.10
2022-10-26T13:27:45.065Z,21.10
2022-10-26T13:30:38.578Z,21.10
2022-10-26T13:33:11.992Z,21.10
2022-10-26T13:35:42.904Z,21.10
2022-10-26T13:38:13.976Z,21.10
2022-10-26T13:40:42.920Z,21.10
2022-10-26T13:43:20.605Z,21.10
2022-10-26T13:45:56.067Z,21.10
2022-10-26T13:48:32.512Z,21.10
2022-10-26T13:51:04.230Z,21.10
2022-10-26T13:53:41.401Z,21.10
2022-10-26T13:56:18.885Z,21.10
2022-10-26T13:58:53.278Z,21.10
2022-10-26T14:01:25.781Z,21.10
2022-10-26T14:03:54.379Z,21.10
2022-10-26T14:06:28.793Z,21.10
2022-10-26T14:09:01.808Z,21.10
2022-10-26T14:11:35.829Z,21.00
2022-10-26T14:14:05.513Z,21.00
2022-10-26T14:16:35.793Z,21.10
2022-10-26T14:19:04.764Z,21.10
2022-10-26T14:21:33.377Z,21.00
2022-10-26T14:24:07.584Z,21.00
2022-10-26T14:26:41.581Z,21.00
2022-10-26T14:29:17.325Z,21.00
2022-10-26T14:31:49.162Z,21.00
2022-10-26T14:34:18.647Z,21.00
2022-10-26T14:36:50.152Z,21.00
2022-10-26T14:39:26.869Z,21.00
2022-10-26T14:41:57.177Z,20.90
2022-10-26T14:44:26.899Z,20.80
2022-10-26T14:46:56.913Z,20.80
2022-10-26T14:49:27.693Z,20.70
2022-10-26T14:51:59.444Z,20.60
2022-10-26T14:54:29.998Z,20.50
2022-10-26T14:56:59.040Z,20.50
2022-10-26T14:59:29.022Z,20.40
2022-10-26T15:02:00.639Z,20.40
2022-10-26T15:04:34.487Z,20.40
2022-10-26T15:07:10.054Z,20.30
2022-10-26T15:09:44.813Z,20.20
2022-10-26T15:12:32.424Z,20.20
2022-10-26T15:15:19.343Z,20.10
2022-10-26T15:17:53.012Z,20.10
2022-10-26T15:20:24.242Z,20.00
2022-10-26T15:22:55.187Z,20.00
2022-10-26T15:25:26.142Z,19.90
2022-10-26T15:27:54.969Z,19.90
2022-10-26T15:30:25.941Z,19.80
2022-10-26T15:32:56.496Z,19.70
2022-10-26T15:35:29.261Z,19.70
2022-10-26T15:38:00.775Z,19.60
2022-10-26T15:40:31.849Z,19.60
2022-10-26T15:43:01.972Z,19.50
2022-10-26T15:45:34.808Z,19.40
2022-10-26T15:48:19.280Z,19.30
2022-10-26T15:50:47.784Z,19.30
2022-10-26T15:53:21.225Z,19.20
2022-10-26T15:55:50.864Z,19.10
2022-10-26T15:58:19.554Z,19.00
2022-10-26T16:00:48.152Z,18.90
2022-10-26T16:03:20.773Z,18.90
2022-10-26T16:05:52.722Z,18.80
2022-10-26T16:08:21.266Z,18.70
2022-10-26T16:10:51.029Z,18.70
2022-10-26T16:13:19.517Z,18.60
2022-10-26T16:15:48.184Z,18.50
2022-10-26T16:18:18.089Z,18.40
2022-10-26T16:20:47.208Z,18.40
2022-10-26T16:23:16.144Z,18.30
2022-10-26T16:25:46.566Z,18.20
2022-10-26T16:28:16.848Z,18.10
2022-10-26T16:30:45.777Z,18.10
2022-10-26T16:33:14.434Z,18.00
2022-10-26T16:35:44.314Z,17.90
2022-10-26T16:38:12.997Z,17.80
2022-10-26T16:40:43.179Z,17.80
2022-10-26T16:43:11.835Z,17.70
2022-10-26T16:45:42.104Z,17.60
2022-10-26T16:48:14.993Z,17.50
2022-10-26T16:50:44.769Z,17.50
2022-10-26T16:53:13.256Z,17.40
2022-10-26T16:58:11.585Z,17.30
2022-10-26T17:00:40.023Z,17.20
2022-10-26T17:03:08.644Z,17.20
2022-10-26T17:05:37.156Z,17.10
2022-10-26T17:08:08.682Z,17.10
2022-10-26T17:10:37.269Z,17.00
2022-10-26T17:13:05.969Z,16.90
2022-10-26T17:15:34.871Z,16.90
2022-10-26T17:18:03.399Z,16.80
2022-10-26T17:20:32.023Z,16.70
2022-10-26T17:23:00.518Z,16.80
2022-10-26T17:25:30.391Z,16.60
2022-10-26T17:27:59.507Z,16.60
2022-10-26T17:30:31.584Z,16.60
2022-10-26T17:33:02.744Z,16.50
2022-10-26T17:35:31.277Z,16.50
2022-10-26T17:37:59.831Z,16.40
2022-10-26T17:40:30.244Z,16.40
2022-10-26T17:42:59.720Z,16.30
2022-10-26T17:45:28.638Z,16.30
2022-10-26T17:47:57.110Z,16.30
2022-10-26T17:50:25.616Z,16.20
2022-10-26T17:52:55.646Z,16.20
2022-10-26T17:55:24.141Z,16.10
2022-10-26T17:57:53.994Z,16.00
2022-10-26T18:00:22.578Z,16.00
2022-10-26T18:02:51.151Z,16.00
2022-10-26T18:05:19.948Z,15.90
2022-10-26T18:07:48.804Z,15.90
2022-10-26T18:10:37.063Z,15.80
2022-10-26T18:13:07.489Z,15.90
2022-10-26T18:15:37.006Z,15.80
2022-10-26T18:18:05.809Z,15.80
2022-10-26T18:20:34.346Z,15.80
2022-10-26T18:23:03.146Z,15.70
2022-10-26T18:25:32.557Z,15.70
2022-10-26T18:28:01.163Z,15.70
2022-10-26T18:30:31.072Z,15.60
2022-10-26T18:32:59.557Z,15.60
2022-10-26T18:35:28.044Z,15.60
2022-10-26T18:37:56.571Z,15.60
2022-10-26T18:40:25.014Z,15.60
2022-10-26T18:42:53.685Z,15.60
2022-10-26T18:45:22.179Z,15.50
2022-10-26T18:47:52.455Z,15.50
2022-10-26T18:50:21.274Z,15.50
2022-10-26T18:52:50.020Z,15.40
2022-10-26T18:55:18.547Z,15.40
2022-10-26T18:57:47.337Z,15.30
2022-10-26T19:00:16.420Z,15.30
2022-10-26T19:02:47.478Z,15.20
2022-10-26T19:05:19.884Z,15.20
2022-10-26T19:07:48.399Z,15.20
2022-10-26T19:10:17.003Z,15.10
2022-10-26T19:12:45.493Z,15.20
2022-10-26T19:15:14.017Z,15.20
2022-10-26T19:17:42.635Z,15.10
2022-10-26T19:20:12.811Z,15.10
2022-10-26T19:22:42.711Z,15.10
2022-10-26T19:25:11.492Z,15.10
2022-10-26T19:27:39.999Z,15.10
2022-10-26T19:30:09.511Z,15.10
2022-10-26T19:32:38.042Z,15.00
2022-10-26T19:35:07.217Z,15.00
2022-10-26T19:37:35.670Z,15.00
2022-10-26T19:40:06.315Z,15.00
2022-10-26T19:42:34.796Z,15.00
2022-10-26T19:45:03.580Z,15.00
2022-10-26T19:47:32.080Z,15.00
2022-10-26T19:50:00.557Z,15.00
2022-10-26T19:52:29.308Z,15.00
2022-10-26T19:54:58.039Z,15.00
2022-10-26T19:57:28.002Z,15.00
2022-10-26T19:59:56.504Z,15.00
2022-10-26T20:02:25.017Z,15.00
2022-10-26T20:04:53.570Z,14.90
2022-10-26T20:07:22.711Z,14.90
2022-10-26T20:09:51.241Z,14.80
2022-10-26T20:12:19.762Z,14.80
2022-10-26T20:14:49.680Z,14.80
2022-10-26T20:17:18.129Z,14.70
2022-10-26T20:19:46.645Z,14.70
2022-10-26T20:22:15.163Z,14.70
2022-10-26T20:24:43.958Z,14.70
2022-10-26T20:27:12.385Z,14.70
2022-10-26T20:29:40.862Z,14.60
2022-10-26T20:32:15.087Z,14.60
2022-10-26T20:34:45.529Z,14.60
2022-10-26T20:37:16.276Z,14.60
2022-10-26T20:39:45.825Z,14.60
2022-10-26T20:42:24.741Z,14.60
2022-10-26T20:44:58.682Z,14.60
2022-10-26T20:47:29.324Z,14.60
2022-10-26T20:49:58.398Z,14.50
2022-10-26T20:52:35.410Z,14.50
2022-10-26T20:55:08.037Z,14.50
2022-10-26T20:57:36.970Z,14.40
2022-10-26T21:00:09.006Z,14.40
2022-10-26T21:02:38.933Z,14.40
2022-10-26T21:05:08.073Z,14.40
2022-10-26T21:07:36.720Z,14.30
2022-10-26T21:10:05.794Z,14.30
2022-10-26T21:12:34.305Z,14.30
2022-10-26T21:15:02.896Z,14.30
2022-10-26T21:17:34.317Z,14.20
2022-10-26T21:20:04.695Z,14.20
2022-10-26T21:22:33.249Z,14.20
2022-10-26T21:25:01.728Z,14.30
2022-10-26T21:27:30.256Z,14.30
2022-10-26T21:29:58.735Z,14.30
2022-10-26T21:32:27.617Z,14.30
2022-10-26T21:34:56.072Z,14.30
2022-10-26T21:37:27.822Z,14.20
2022-10-26T21:39:56.579Z,14.20
2022-10-26T21:42:25.029Z,14.20
2022-10-26T21:44:53.492Z,14.20
2022-10-26T21:47:22.010Z,14.20
2022-10-26T21:49:50.737Z,14.20
2022-10-26T21:52:19.285Z,14.20
2022-10-26T21:54:49.063Z,14.20
2022-10-26T21:57:17.668Z,14.20
2022-10-26T21:59:46.127Z,14.10
2022-10-26T22:02:14.817Z,14.10
2022-10-26T22:04:43.409Z,14.10
2022-10-26T22:07:11.922Z,14.00
2022-10-26T22:09:49.485Z,14.10
2022-10-26T22:12:30.249Z,14.00
2022-10-26T22:14:58.922Z,14.00
2022-10-26T22:17:27.473Z,13.90
2022-10-26T22:19:56.051Z,13.90
2022-10-26T22:22:24.556Z,13.90
2022-10-26T22:24:53.044Z,13.90
2022-10-26T22:27:21.503Z,13.80
2022-10-26T22:29:51.419Z,13.80
2022-10-26T22:32:20.009Z,13.80
2022-10-26T22:34:50.642Z,13.70
2022-10-26T22:37:19.277Z,13.70
2022-10-26T22:42:21.132Z,13.70
2022-10-26T22:44:50.993Z,13.70
2022-10-26T22:47:19.531Z,13.70
2022-10-26T22:49:48.029Z,13.60
2022-10-26T22:52:16.685Z,13.70
2022-10-26T22:54:45.158Z,13.70
2022-10-26T22:57:13.713Z,13.70
2022-10-26T22:59:42.152Z,13.70
2022-10-26T23:02:12.142Z,13.60
2022-10-26T23:04:40.752Z,13.60
2022-10-26T23:07:09.294Z,13.60
2022-10-26T23:09:37.910Z,13.50
2022-10-26T23:12:06.529Z,13.50
2022-10-26T23:14:35.140Z,13.50
2022-10-26T23:17:06.086Z,13.50
2022-10-26T23:19:36.071Z,13.40
2022-10-26T23:22:04.961Z,13.40
2022-10-26T23:24:33.414Z,13.40
2022-10-26T23:27:02.373Z,13.40
2022-10-26T23:29:30.871Z,13.40
2022-10-26T23:31:59.393Z,13.40
2022-10-26T23:34:27.930Z,13.30
2022-10-26T23:36:57.735Z,13.30
2022-10-26T23:39:26.223Z,13.30
2022-10-26T23:41:54.743Z,13.30
2022-10-26T23:44:23.273Z,13.30
2022-10-26T23:46:51.870Z,13.30
2022-10-26T23:49:20.318Z,13.20
2022-10-26T23:51:48.804Z,13.20
2022-10-26T23:54:18.811Z,13.20
2022-10-26T23:56:47.359Z,13.20
2022-10-26T23:59:15.892Z,13.20
